Terminal Aerodrome Forecast
Issued by NWS Memphis, TN

Home | Current Version | Previous Version | Text Only | Print | Product List | Glossary On
Versions: 1 2 3 4 5 6 7 8 9 10 11 12 13 14 15 16 17 18 19 20 21 22 23 24 25 26 27
000
FTUS44 KMEG 222336
TAFMEM
TAF
KMEM 222336Z 2300/2324 15009KT P6SM -SHRA SCT025 BKN035
      TEMPO 2300/2303 16015G25KT 3SM SHRA BKN025
     FM230300 16012G18KT P6SM VCSH OVC025
     FM230900 18016G25KT 3SM SHRA OVC015 WS020/22055KT
     FM231900 23014G23KT 6SM -SHRA BKN015=

USA.gov is the U.S. government's official web portal to all federal, state and local government web resources and services.